Grizzly Air Cargo 5350


PANC
Ted Stevens Anchorage International Airport
Anchorage, Alaska, US
PADQ
Kodiak Airport
Kodiak, Alaska, US

Activity Log

Date Flight Route Aircraft Duration
11/08/2019 GRZ550 HOM SHUYA ADQ SF34 1h 07m
10/11/2019 GRZ550 TURNA7 TED J125 ODK SF34 1h 05m
10/09/2019 GRZ550 TURNA7 TED J125 ODK SF34 1h 19m
10/06/2019 GRZ550 TURNA7 TED J125 ODK SF34 1h 10m
09/12/2019 GRZ550 TURNA7 TED J125 ODK SF34 1h 03m

Route Details

Aircraft Information
Primary: Saab 340AF
Backup: Not Available
Route Data
Distance: 232nm
Sched. Duration: 1h 00m
Avg. Duration: 1h 09m (+9m)
Times Flown: 5
Recm'd Route: TURNA7 TED J125 ODK
Planned Altitude: 24,000ft
Origin Wx: PANC 290853Z 00000KT 10SM CLR 13/06 A2997 RMK AO2 VIS M1/4 N SLP148 T01330061 402220061 53002
Dest. Wx: PADQ 290853Z AUTO 26004KT 10SM OVC100 09/04 A3000 RMK AO2 SLP160 T00940039 402000089 58000 TSNO
Notes:

Financial History
Total Freight: 27,455lbs
Average Load: 5,491lbs/flt
Fuel Used: 2,507lbs
Avg. Fuel Used: 501lbs/flt
Fuel Expense: $3,068
Avg. Fuel Expense: $614
Avg. Fuel Cost: $1.25/lbs
Total Gross Income: $56,283
Pilot Pay: $915
Total Expenses: $6,339
Total Revenue: $45,673
Average Revenue: $11,256.55